sensor_id;sensor_type;location;lat;lon;timestamp;pressure;altitude;pressure_sealevel;temperature;humidity
53932;BME280;39844;52.496;13.482;2023-02-02T00:01:59;100583.63;;;4.77;81.45
53932;BME280;39844;52.496;13.482;2023-02-02T00:04:28;100578.50;;;4.80;81.20
53932;BME280;39844;52.496;13.482;2023-02-02T00:06:54;100564.69;;;4.84;81.03
53932;BME280;39844;52.496;13.482;2023-02-02T00:09:19;100570.84;;;4.89;80.25
53932;BME280;39844;52.496;13.482;2023-02-02T00:11:46;100568.31;;;4.94;79.85
53932;BME280;39844;52.496;13.482;2023-02-02T00:14:12;100573.56;;;4.97;79.52
53932;BME280;39844;52.496;13.482;2023-02-02T00:16:44;100568.41;;;5.00;79.26
53932;BME280;39844;52.496;13.482;2023-02-02T00:19:15;100571.03;;;5.01;79.29
53932;BME280;39844;52.496;13.482;2023-02-02T00:21:41;100565.00;;;5.04;78.94
53932;BME280;39844;52.496;13.482;2023-02-02T00:24:09;100595.44;;;5.09;78.42
53932;BME280;39844;52.496;13.482;2023-02-02T00:26:36;100570.34;;;5.13;78.31
53932;BME280;39844;52.496;13.482;2023-02-02T00:29:03;100570.38;;;5.15;78.20
53932;BME280;39844;52.496;13.482;2023-02-02T00:31:29;100566.06;;;5.17;78.19
53932;BME280;39844;52.496;13.482;2023-02-02T00:33:54;100562.63;;;5.18;78.28
53932;BME280;39844;52.496;13.482;2023-02-02T00:36:19;100547.00;;;5.18;78.55
53932;BME280;39844;52.496;13.482;2023-02-02T00:38:46;100540.97;;;5.20;78.41
53932;BME280;39844;52.496;13.482;2023-02-02T00:41:12;100547.94;;;5.21;78.78
53932;BME280;39844;52.496;13.482;2023-02-02T00:43:37;100549.66;;;5.21;79.19
53932;BME280;39844;52.496;13.482;2023-02-02T00:46:02;100538.34;;;5.19;79.44
53932;BME280;39844;52.496;13.482;2023-02-02T00:48:27;100556.59;;;5.20;78.87
53932;BME280;39844;52.496;13.482;2023-02-02T00:50:53;100543.59;;;5.22;78.76
53932;BME280;39844;52.496;13.482;2023-02-02T00:53:19;100557.47;;;5.22;79.44
53932;BME280;39844;52.496;13.482;2023-02-02T00:55:44;100560.91;;;5.20;80.06
53932;BME280;39844;52.496;13.482;2023-02-02T00:58:09;100552.25;;;5.21;80.10
53932;BME280;39844;52.496;13.482;2023-02-02T01:00:56;100553.97;;;5.20;80.37
53932;BME280;39844;52.496;13.482;2023-02-02T01:03:22;100565.22;;;5.19;80.63
53932;BME280;39844;52.496;13.482;2023-02-02T01:05:47;100557.41;;;5.18;81.41
53932;BME280;39844;52.496;13.482;2023-02-02T01:08:12;100560.84;;;5.17;82.01
53932;BME280;39844;52.496;13.482;2023-02-02T01:10:38;100566.06;;;5.17;82.64
53932;BME280;39844;52.496;13.482;2023-02-02T01:13:03;100566.88;;;5.14;82.76
53932;BME280;39844;52.496;13.482;2023-02-02T01:15:28;100547.78;;;5.13;83.44
53932;BME280;39844;52.496;13.482;2023-02-02T01:17:54;100565.16;;;5.13;83.36
53932;BME280;39844;52.496;13.482;2023-02-02T01:20:19;100554.69;;;5.10;84.06
53932;BME280;39844;52.496;13.482;2023-02-02T01:22:45;100568.53;;;5.07;84.54
53932;BME280;39844;52.496;13.482;2023-02-02T01:25:12;100557.22;;;5.05;85.43
53932;BME280;39844;52.496;13.482;2023-02-02T01:27:37;100556.28;;;5.00;86.23
53932;BME280;39844;52.496;13.482;2023-02-02T01:30:03;100569.25;;;4.99;86.67
53932;BME280;39844;52.496;13.482;2023-02-02T01:32:29;100564.03;;;4.99;86.85
53932;BME280;39844;52.496;13.482;2023-02-02T01:34:54;100572.72;;;4.99;87.55
53932;BME280;39844;52.496;13.482;2023-02-02T01:37:19;100557.97;;;4.98;88.24
53932;BME280;39844;52.496;13.482;2023-02-02T01:39:44;100602.97;;;4.93;89.49
53932;BME280;39844;52.496;13.482;2023-02-02T01:42:12;100561.31;;;4.90;89.22
53932;BME280;39844;52.496;13.482;2023-02-02T01:47:29;100563.91;;;4.90;88.43
53932;BME280;39844;52.496;13.482;2023-02-02T01:49:55;100571.72;;;4.90;88.64
53932;BME280;39844;52.496;13.482;2023-02-02T01:52:23;100563.03;;;4.91;88.75
53932;BME280;39844;52.496;13.482;2023-02-02T01:54:53;100574.41;;;4.96;88.00
53932;BME280;39844;52.496;13.482;2023-02-02T01:57:26;100564.91;;;4.98;87.97
53932;BME280;39844;52.496;13.482;2023-02-02T01:59:54;100573.66;;;5.03;88.13
53932;BME280;39844;52.496;13.482;2023-02-02T02:02:21;100589.22;;;5.01;88.71
53932;BME280;39844;52.496;13.482;2023-02-02T02:04:48;100602.22;;;5.01;88.69
53932;BME280;39844;52.496;13.482;2023-02-02T02:07:14;100585.75;;;5.01;88.81
53932;BME280;39844;52.496;13.482;2023-02-02T02:09:39;100591.78;;;4.98;89.32
53932;BME280;39844;52.496;13.482;2023-02-02T02:12:15;100578.81;;;5.00;89.12
53932;BME280;39844;52.496;13.482;2023-02-02T02:14:43;100584.91;;;5.02;88.77
53932;BME280;39844;52.496;13.482;2023-02-02T02:20:08;100595.38;;;5.06;88.68
53932;BME280;39844;52.496;13.482;2023-02-02T02:34:17;100608.69;;;5.25;86.32
53932;BME280;39844;52.496;13.482;2023-02-02T02:39:38;100606.19;;;5.32;85.36
53932;BME280;39844;52.496;13.482;2023-02-02T02:42:10;100619.25;;;5.35;84.90
53932;BME280;39844;52.496;13.482;2023-02-02T02:44:37;100618.41;;;5.36;85.19
53932;BME280;39844;52.496;13.482;2023-02-02T02:47:02;100636.59;;;5.35;85.50
53932;BME280;39844;52.496;13.482;2023-02-02T02:49:28;100630.53;;;5.36;85.19
53932;BME280;39844;52.496;13.482;2023-02-02T02:51:54;100634.03;;;5.36;84.98
53932;BME280;39844;52.496;13.482;2023-02-02T02:54:40;100641.00;;;5.39;84.89
53932;BME280;39844;52.496;13.482;2023-02-02T03:08:15;100641.13;;;5.48;83.93
53932;BME280;39844;52.496;13.482;2023-02-02T03:10:44;100639.44;;;5.50;83.33
53932;BME280;39844;52.496;13.482;2023-02-02T03:13:11;100648.94;;;5.48;83.83
53932;BME280;39844;52.496;13.482;2023-02-02T03:15:41;100657.66;;;5.50;83.67
53932;BME280;39844;52.496;13.482;2023-02-02T03:18:07;100664.69;;;5.55;82.70
53932;BME280;39844;52.496;13.482;2023-02-02T03:20:33;100669.06;;;5.58;82.70
53932;BME280;39844;52.496;13.482;2023-02-02T03:22:58;100647.41;;;5.60;82.84
53932;BME280;39844;52.496;13.482;2023-02-02T03:25:24;100672.59;;;5.61;82.67
53932;BME280;39844;52.496;13.482;2023-02-02T03:27:50;100673.44;;;5.59;83.23
53932;BME280;39844;52.496;13.482;2023-02-02T03:30:16;100690.75;;;5.58;83.23
53932;BME280;39844;52.496;13.482;2023-02-02T03:32:41;100686.44;;;5.59;82.68
53932;BME280;39844;52.496;13.482;2023-02-02T03:35:07;100693.31;;;5.57;82.98
53932;BME280;39844;52.496;13.482;2023-02-02T03:37:33;100685.50;;;5.57;82.52
53932;BME280;39844;52.496;13.482;2023-02-02T03:39:58;100701.13;;;5.55;82.40
53932;BME280;39844;52.496;13.482;2023-02-02T03:42:24;100714.13;;;5.54;82.85
53932;BME280;39844;52.496;13.482;2023-02-02T03:44:49;100714.97;;;5.54;82.46
53932;BME280;39844;52.496;13.482;2023-02-02T03:47:14;100726.28;;;5.55;82.76
53932;BME280;39844;52.496;13.482;2023-02-02T03:49:40;100718.50;;;5.56;82.55
53932;BME280;39844;52.496;13.482;2023-02-02T03:52:05;100721.06;;;5.55;83.47
53932;BME280;39844;52.496;13.482;2023-02-02T03:54:30;100728.88;;;5.53;83.46
53932;BME280;39844;52.496;13.482;2023-02-02T03:56:56;100736.63;;;5.52;82.96
53932;BME280;39844;52.496;13.482;2023-02-02T03:59:21;100760.06;;;5.52;82.63
53932;BME280;39844;52.496;13.482;2023-02-02T04:01:46;100755.72;;;5.51;82.62
53932;BME280;39844;52.496;13.482;2023-02-02T04:04:12;100766.13;;;5.51;82.40
53932;BME280;39844;52.496;13.482;2023-02-02T04:06:37;100754.91;;;5.53;82.11
53932;BME280;39844;52.496;13.482;2023-02-02T04:09:02;100769.63;;;5.53;82.77
53932;BME280;39844;52.496;13.482;2023-02-02T04:11:27;100767.84;;;5.50;83.13
53932;BME280;39844;52.496;13.482;2023-02-02T04:13:53;100773.06;;;5.50;83.02
53932;BME280;39844;52.496;13.482;2023-02-02T04:16:18;100781.69;;;5.48;83.71
53932;BME280;39844;52.496;13.482;2023-02-02T04:18:43;100778.19;;;5.46;83.45
53932;BME280;39844;52.496;13.482;2023-02-02T04:21:09;100799.03;;;5.46;83.34
53932;BME280;39844;52.496;13.482;2023-02-02T04:23:35;100802.47;;;5.45;83.40
53932;BME280;39844;52.496;13.482;2023-02-02T04:26:01;100807.72;;;5.48;82.60
53932;BME280;39844;52.496;13.482;2023-02-02T04:28:27;100806.84;;;5.47;82.57
53932;BME280;39844;52.496;13.482;2023-02-02T04:30:53;100808.56;;;5.45;82.83
53932;BME280;39844;52.496;13.482;2023-02-02T04:33:20;100818.06;;;5.45;83.00
53932;BME280;39844;52.496;13.482;2023-02-02T04:35:45;100816.34;;;5.44;82.63
53932;BME280;39844;52.496;13.482;2023-02-02T04:38:11;100815.47;;;5.43;82.48
53932;BME280;39844;52.496;13.482;2023-02-02T04:40:41;100814.63;;;5.46;82.52
53932;BME280;39844;52.496;13.482;2023-02-02T04:43:07;100831.09;;;5.45;82.36
53932;BME280;39844;52.496;13.482;2023-02-02T04:45:32;100834.56;;;5.44;82.50
53932;BME280;39844;52.496;13.482;2023-02-02T04:47:58;100830.19;;;5.43;82.85
53932;BME280;39844;52.496;13.482;2023-02-02T04:50:23;100832.78;;;5.43;82.59
53932;BME280;39844;52.496;13.482;2023-02-02T04:52:48;100834.50;;;5.42;82.57
53932;BME280;39844;52.496;13.482;2023-02-02T04:55:14;100840.59;;;5.43;82.28
53932;BME280;39844;52.496;13.482;2023-02-02T04:57:39;100842.38;;;5.44;82.27
53932;BME280;39844;52.496;13.482;2023-02-02T05:00:05;100850.19;;;5.45;81.82
53932;BME280;39844;52.496;13.482;2023-02-02T05:02:34;100841.56;;;5.48;81.69
53932;BME280;39844;52.496;13.482;2023-02-02T05:05:00;100844.16;;;5.46;81.92
53932;BME280;39844;52.496;13.482;2023-02-02T05:07:25;100855.47;;;5.48;81.58
53932;BME280;39844;52.496;13.482;2023-02-02T05:09:50;100863.28;;;5.48;81.31
53932;BME280;39844;52.496;13.482;2023-02-02T05:12:15;100859.81;;;5.49;81.83
53932;BME280;39844;52.496;13.482;2023-02-02T05:14:41;100878.84;;;5.47;82.63
53932;BME280;39844;52.496;13.482;2023-02-02T05:17:06;100878.00;;;5.46;83.10
53932;BME280;39844;52.496;13.482;2023-02-02T05:19:31;100897.88;;;5.43;84.20
53932;BME280;39844;52.496;13.482;2023-02-02T05:21:56;100894.31;;;5.38;84.43
53932;BME280;39844;52.496;13.482;2023-02-02T05:24:22;100911.63;;;5.36;84.92
53932;BME280;39844;52.496;13.482;2023-02-02T05:26:47;100909.84;;;5.33;84.76
53932;BME280;39844;52.496;13.482;2023-02-02T05:29:12;100915.88;;;5.32;85.31
53932;BME280;39844;52.496;13.482;2023-02-02T05:31:38;100916.69;;;5.30;85.88
53932;BME280;39844;52.496;13.482;2023-02-02T05:34:04;100923.59;;;5.28;85.91
53932;BME280;39844;52.496;13.482;2023-02-02T05:36:29;100918.31;;;5.25;86.21
53932;BME280;39844;52.496;13.482;2023-02-02T05:38:55;100926.09;;;5.23;86.21
53932;BME280;39844;52.496;13.482;2023-02-02T05:41:20;100933.03;;;5.23;86.24
53932;BME280;39844;52.496;13.482;2023-02-02T05:43:45;100935.66;;;5.24;85.85
53932;BME280;39844;52.496;13.482;2023-02-02T05:46:11;100943.44;;;5.24;85.75
53932;BME280;39844;52.496;13.482;2023-02-02T05:48:36;100944.34;;;5.25;85.56
53932;BME280;39844;52.496;13.482;2023-02-02T05:51:04;100953.00;;;5.24;85.60
53932;BME280;39844;52.496;13.482;2023-02-02T05:53:31;100952.16;;;5.25;84.87
53932;BME280;39844;52.496;13.482;2023-02-02T05:55:57;100952.19;;;5.26;84.65
53932;BME280;39844;52.496;13.482;2023-02-02T05:58:22;100961.72;;;5.26;84.62
53932;BME280;39844;52.496;13.482;2023-02-02T06:00:48;100954.81;;;5.28;83.36
53932;BME280;39844;52.496;13.482;2023-02-02T06:03:13;100959.22;;;5.30;83.27
53932;BME280;39844;52.496;13.482;2023-02-02T06:05:38;100963.53;;;5.30;83.14
53932;BME280;39844;52.496;13.482;2023-02-02T06:08:04;100975.72;;;5.32;81.79
53932;BME280;39844;52.496;13.482;2023-02-02T06:10:29;100971.44;;;5.34;81.71
53932;BME280;39844;52.496;13.482;2023-02-02T06:12:55;100977.50;;;5.35;81.32
53932;BME280;39844;52.496;13.482;2023-02-02T06:15:20;100968.81;;;5.34;80.92
53932;BME280;39844;52.496;13.482;2023-02-02T06:17:45;100983.59;;;5.35;80.78
53932;BME280;39844;52.496;13.482;2023-02-02T06:20:11;100988.81;;;5.35;80.77
53932;BME280;39844;52.496;13.482;2023-02-02T06:22:36;100997.50;;;5.36;80.55
53932;BME280;39844;52.496;13.482;2023-02-02T06:25:02;100994.91;;;5.37;79.72
53932;BME280;39844;52.496;13.482;2023-02-02T06:27:27;101002.78;;;5.39;79.56
53932;BME280;39844;52.496;13.482;2023-02-02T06:29:52;101004.50;;;5.38;79.80
53932;BME280;39844;52.496;13.482;2023-02-02T06:32:18;101009.69;;;5.38;80.02
53932;BME280;39844;52.496;13.482;2023-02-02T06:34:43;101012.25;;;5.37;80.42
53932;BME280;39844;52.496;13.482;2023-02-02T06:37:08;101020.06;;;5.37;79.95
53932;BME280;39844;52.496;13.482;2023-02-02T06:39:34;101019.22;;;5.38;79.85
53932;BME280;39844;52.496;13.482;2023-02-02T06:41:59;101023.59;;;5.39;79.93
53932;BME280;39844;52.496;13.482;2023-02-02T06:44:24;101029.63;;;5.38;79.53
53932;BME280;39844;52.496;13.482;2023-02-02T06:46:49;101034.84;;;5.38;79.89
53932;BME280;39844;52.496;13.482;2023-02-02T06:49:15;101033.97;;;5.37;79.45
53932;BME280;39844;52.496;13.482;2023-02-02T06:51:40;101048.69;;;5.37;79.32
53932;BME280;39844;52.496;13.482;2023-02-02T06:54:05;101047.03;;;5.39;78.42
53932;BME280;39844;52.496;13.482;2023-02-02T06:56:31;101050.47;;;5.38;78.23
53932;BME280;39844;52.496;13.482;2023-02-02T06:58:56;101053.06;;;5.38;78.79
53932;BME280;39844;52.496;13.482;2023-02-02T07:01:21;101060.84;;;5.36;78.62
53932;BME280;39844;52.496;13.482;2023-02-02T07:03:47;101072.97;;;5.36;78.01
53932;BME280;39844;52.496;13.482;2023-02-02T07:06:15;101072.97;;;5.36;77.99
53932;BME280;39844;52.496;13.482;2023-02-02T07:08:41;101082.50;;;5.35;77.37
53932;BME280;39844;52.496;13.482;2023-02-02T07:11:07;101077.31;;;5.37;77.27
53932;BME280;39844;52.496;13.482;2023-02-02T07:13:32;101085.09;;;5.34;77.22
53932;BME280;39844;52.496;13.482;2023-02-02T07:15:57;101092.91;;;5.34;75.99
53932;BME280;39844;52.496;13.482;2023-02-02T07:18:23;101090.28;;;5.34;75.85
53932;BME280;39844;52.496;13.482;2023-02-02T07:20:48;101099.91;;;5.36;73.86
53932;BME280;39844;52.496;13.482;2023-02-02T07:23:13;101112.94;;;5.38;74.06
53932;BME280;39844;52.496;13.482;2023-02-02T07:25:39;101111.16;;;5.37;74.11
53932;BME280;39844;52.496;13.482;2023-02-02T07:28:04;101122.44;;;5.37;72.73
53932;BME280;39844;52.496;13.482;2023-02-02T07:30:29;101125.13;;;5.39;72.32
53932;BME280;39844;52.496;13.482;2023-02-02T07:32:55;101132.94;;;5.40;71.51
53932;BME280;39844;52.496;13.482;2023-02-02T07:35:20;101137.34;;;5.43;71.35
53932;BME280;39844;52.496;13.482;2023-02-02T07:37:50;101144.25;;;5.42;71.61
53932;BME280;39844;52.496;13.482;2023-02-02T07:40:16;101139.03;;;5.41;70.79
53932;BME280;39844;52.496;13.482;2023-02-02T07:42:41;101145.84;;;5.36;71.64
53932;BME280;39844;52.496;13.482;2023-02-02T07:45:07;101133.59;;;5.32;71.58
53932;BME280;39844;52.496;13.482;2023-02-02T07:47:32;101139.66;;;5.31;71.57
53932;BME280;39844;52.496;13.482;2023-02-02T07:49:57;101138.81;;;5.32;71.79
53932;BME280;39844;52.496;13.482;2023-02-02T07:52:23;101147.47;;;5.31;71.58
53932;BME280;39844;52.496;13.482;2023-02-02T07:54:48;101150.00;;;5.29;72.31
53932;BME280;39844;52.496;13.482;2023-02-02T07:57:16;101152.59;;;5.28;72.25
53932;BME280;39844;52.496;13.482;2023-02-02T07:59:41;101154.28;;;5.26;72.68
53932;BME280;39844;52.496;13.482;2023-02-02T08:02:08;101155.19;;;5.28;72.61
53932;BME280;39844;52.496;13.482;2023-02-02T08:04:33;101165.59;;;5.26;72.95
53932;BME280;39844;52.496;13.482;2023-02-02T08:06:58;101174.22;;;5.25;73.38
53932;BME280;39844;52.496;13.482;2023-02-02T08:09:24;101166.50;;;5.28;73.88
53932;BME280;39844;52.496;13.482;2023-02-02T08:11:49;101169.97;;;5.29;75.32
53932;BME280;39844;52.496;13.482;2023-02-02T08:14:14;101176.94;;;5.30;75.18
53932;BME280;39844;52.496;13.482;2023-02-02T08:16:40;101184.72;;;5.30;75.95
53932;BME280;39844;52.496;13.482;2023-02-02T08:19:05;101186.53;;;5.32;76.14
53932;BME280;39844;52.496;13.482;2023-02-02T08:21:34;101191.78;;;5.34;76.63
53932;BME280;39844;52.496;13.482;2023-02-02T08:23:59;101197.03;;;5.35;77.27
53932;BME280;39844;52.496;13.482;2023-02-02T08:26:26;101194.44;;;5.37;77.54
53932;BME280;39844;52.496;13.482;2023-02-02T08:28:55;101199.72;;;5.38;77.80
53932;BME280;39844;52.496;13.482;2023-02-02T08:31:23;101198.91;;;5.41;78.17
53932;BME280;39844;52.496;13.482;2023-02-02T08:33:49;101211.03;;;5.40;78.43
53932;BME280;39844;52.496;13.482;2023-02-02T08:36:17;101201.53;;;5.42;78.50
53932;BME280;39844;52.496;13.482;2023-02-02T08:38:43;101204.19;;;5.44;79.24
53932;BME280;39844;52.496;13.482;2023-02-02T08:41:11;101212.03;;;5.45;79.43
53932;BME280;39844;52.496;13.482;2023-02-02T08:43:37;101212.03;;;5.47;79.27
53932;BME280;39844;52.496;13.482;2023-02-02T08:46:04;101206.84;;;5.47;79.24
53932;BME280;39844;52.496;13.482;2023-02-02T08:48:29;101218.22;;;5.50;79.40
53932;BME280;39844;52.496;13.482;2023-02-02T08:50:56;101225.19;;;5.51;79.35
53932;BME280;39844;52.496;13.482;2023-02-02T08:53:23;101219.09;;;5.51;78.93
53932;BME280;39844;52.496;13.482;2023-02-02T08:56:00;101223.50;;;5.53;78.69
53932;BME280;39844;52.496;13.482;2023-02-02T08:58:26;101222.66;;;5.54;78.51
53932;BME280;39844;52.496;13.482;2023-02-02T09:00:51;101220.94;;;5.55;78.88
53932;BME280;39844;52.496;13.482;2023-02-02T09:03:17;101238.41;;;5.59;78.38
53932;BME280;39844;52.496;13.482;2023-02-02T09:05:42;101237.59;;;5.61;78.42
53932;BME280;39844;52.496;13.482;2023-02-02T09:08:07;101241.22;;;5.68;78.09
53932;BME280;39844;52.496;13.482;2023-02-02T09:10:36;101237.91;;;5.75;77.82
53932;BME280;39844;52.496;13.482;2023-02-02T09:13:02;101247.72;;;5.85;77.20
53932;BME280;39844;52.496;13.482;2023-02-02T09:15:28;101249.56;;;5.89;76.48
53932;BME280;39844;52.496;13.482;2023-02-02T09:17:54;101253.13;;;5.93;75.36
53932;BME280;39844;52.496;13.482;2023-02-02T09:20:19;101260.13;;;5.95;75.68
53932;BME280;39844;52.496;13.482;2023-02-02T09:22:44;101260.19;;;5.97;75.95
53932;BME280;39844;52.496;13.482;2023-02-02T09:25:10;101266.28;;;5.97;75.27
53932;BME280;39844;52.496;13.482;2023-02-02T09:27:38;101272.31;;;5.96;75.56
53932;BME280;39844;52.496;13.482;2023-02-02T09:30:04;101271.44;;;5.96;75.38
53932;BME280;39844;52.496;13.482;2023-02-02T09:32:29;101273.16;;;5.95;74.17
53932;BME280;39844;52.496;13.482;2023-02-02T09:34:54;101287.97;;;5.98;74.14
53932;BME280;39844;52.496;13.482;2023-02-02T09:37:20;101288.94;;;6.01;74.76
53932;BME280;39844;52.496;13.482;2023-02-02T09:39:45;101290.81;;;6.07;74.63
53932;BME280;39844;52.496;13.482;2023-02-02T09:45:38;101297.91;;;6.12;72.68
53932;BME280;39844;52.496;13.482;2023-02-02T09:48:27;101305.75;;;6.15;72.55
53932;BME280;39844;52.496;13.482;2023-02-02T09:51:02;101301.44;;;6.16;72.46
53932;BME280;39844;52.496;13.482;2023-02-02T09:53:44;101320.59;;;6.18;72.84
53932;BME280;39844;52.496;13.482;2023-02-02T09:56:27;101305.03;;;6.21;73.49
53932;BME280;39844;52.496;13.482;2023-02-02T09:58:54;101302.50;;;6.24;72.25
53932;BME280;39844;52.496;13.482;2023-02-02T10:01:24;101312.09;;;6.25;71.03
53932;BME280;39844;52.496;13.482;2023-02-02T10:04:06;101316.50;;;6.27;70.33
53932;BME280;39844;52.496;13.482;2023-02-02T10:19:52;101310.41;;;6.27;68.22
53932;BME280;39844;52.496;13.482;2023-02-02T10:22:22;101320.75;;;6.25;68.44
53932;BME280;39844;52.496;13.482;2023-02-02T10:24:48;101326.03;;;6.27;68.75
53932;BME280;39844;52.496;13.482;2023-02-02T10:27:15;101332.97;;;6.26;69.13
53932;BME280;39844;52.496;13.482;2023-02-02T10:29:55;101319.13;;;6.30;69.95
53932;BME280;39844;52.496;13.482;2023-02-02T10:32:41;101327.94;;;6.34;69.15
53932;BME280;39844;52.496;13.482;2023-02-02T10:38:20;101334.91;;;6.35;68.62
53932;BME280;39844;52.496;13.482;2023-02-02T10:44:11;101333.38;;;6.45;66.46
53932;BME280;39844;52.496;13.482;2023-02-02T10:46:41;101338.75;;;6.51;64.91
53932;BME280;39844;52.496;13.482;2023-02-02T10:49:14;101335.38;;;6.56;64.68
53932;BME280;39844;52.496;13.482;2023-02-02T11:02:55;101346.19;;;6.73;61.76
53932;BME280;39844;52.496;13.482;2023-02-02T11:05:23;101362.69;;;6.72;61.69
53932;BME280;39844;52.496;13.482;2023-02-02T11:07:52;101349.69;;;6.73;61.75
53932;BME280;39844;52.496;13.482;2023-02-02T11:10:17;101361.84;;;6.73;61.18
53932;BME280;39844;52.496;13.482;2023-02-02T11:12:45;101367.06;;;6.73;60.11
53932;BME280;39844;52.496;13.482;2023-02-02T11:15:27;101363.63;;;6.75;60.60
53932;BME280;39844;52.496;13.482;2023-02-02T11:17:53;101371.56;;;6.80;60.67
53932;BME280;39844;52.496;13.482;2023-02-02T11:20:33;101374.22;;;6.83;61.42
53932;BME280;39844;52.496;13.482;2023-02-02T11:23:00;101368.28;;;6.90;61.55
53932;BME280;39844;52.496;13.482;2023-02-02T11:25:32;101375.38;;;6.97;60.76
53932;BME280;39844;52.496;13.482;2023-02-02T11:28:00;101377.31;;;7.04;60.71
53932;BME280;39844;52.496;13.482;2023-02-02T11:30:36;101385.28;;;7.12;61.31
53932;BME280;39844;52.496;13.482;2023-02-02T11:33:32;101394.03;;;7.14;59.14
53932;BME280;39844;52.496;13.482;2023-02-02T11:36:03;101388.66;;;7.08;59.33
53932;BME280;39844;52.496;13.482;2023-02-02T11:38:29;101396.56;;;7.11;60.45
53932;BME280;39844;52.496;13.482;2023-02-02T11:46:02;101387.03;;;7.11;60.38
53932;BME280;39844;52.496;13.482;2023-02-02T11:48:32;101391.44;;;7.15;60.54
53932;BME280;39844;52.496;13.482;2023-02-02T11:51:00;101391.50;;;7.18;60.39
53932;BME280;39844;52.496;13.482;2023-02-02T11:53:31;101396.72;;;7.18;60.63
53932;BME280;39844;52.496;13.482;2023-02-02T11:56:01;101398.44;;;7.16;60.47
53932;BME280;39844;52.496;13.482;2023-02-02T11:58:42;101411.41;;;7.13;60.32
53932;BME280;39844;52.496;13.482;2023-02-02T12:01:27;101398.38;;;7.13;59.94
53932;BME280;39844;52.496;13.482;2023-02-02T12:03:56;101406.22;;;7.15;60.21
53932;BME280;39844;52.496;13.482;2023-02-02T12:06:33;101413.22;;;7.16;60.26
53932;BME280;39844;52.496;13.482;2023-02-02T12:09:00;101414.22;;;7.22;61.23
53932;BME280;39844;52.496;13.482;2023-02-02T12:11:43;101421.28;;;7.26;61.92
53932;BME280;39844;52.496;13.482;2023-02-02T12:14:33;101428.13;;;7.21;62.17
53932;BME280;39844;52.496;13.482;2023-02-02T12:17:30;101441.09;;;7.17;62.66
53932;BME280;39844;52.496;13.482;2023-02-02T12:27:52;101466.31;;;6.79;66.18
53932;BME280;39844;52.496;13.482;2023-02-02T12:39:50;101476.53;;;6.34;69.47
53932;BME280;39844;52.496;13.482;2023-02-02T12:42:05;101473.72;;;6.25;69.76
53932;BME280;39844;52.496;13.482;2023-02-02T12:47:33;101472.91;;;6.27;69.11
53932;BME280;39844;52.496;13.482;2023-02-02T12:55:16;101479.59;;;6.88;68.60
53932;BME280;39844;52.496;13.482;2023-02-02T12:58:11;101477.34;;;7.05;66.12
53932;BME280;39844;52.496;13.482;2023-02-02T13:03:35;101476.25;;;7.34;65.46
53932;BME280;39844;52.496;13.482;2023-02-02T13:06:22;101485.16;;;7.42;62.91
53932;BME280;39844;52.496;13.482;2023-02-02T13:09:11;101486.00;;;7.42;62.18
53932;BME280;39844;52.496;13.482;2023-02-02T13:11:45;101492.25;;;7.47;62.70
53932;BME280;39844;52.496;13.482;2023-02-02T13:14:16;101501.06;;;7.52;61.32
53932;BME280;39844;52.496;13.482;2023-02-02T13:16:46;101500.22;;;7.55;60.86
53932;BME280;39844;52.496;13.482;2023-02-02T13:19:28;101495.09;;;7.59;61.17
53932;BME280;39844;52.496;13.482;2023-02-02T13:21:57;101508.25;;;7.64;59.87
53932;BME280;39844;52.496;13.482;2023-02-02T13:24:28;101525.38;;;7.50;58.68
53932;BME280;39844;52.496;13.482;2023-02-02T13:26:57;101526.06;;;7.41;58.88
53932;BME280;39844;52.496;13.482;2023-02-02T13:29:34;101538.94;;;7.34;57.79
53932;BME280;39844;52.496;13.482;2023-02-02T13:32:17;101535.28;;;7.26;58.02
53932;BME280;39844;52.496;13.482;2023-02-02T13:34:59;101546.44;;;7.20;57.52
53932;BME280;39844;52.496;13.482;2023-02-02T13:40:29;101561.19;;;7.17;58.49
53932;BME280;39844;52.496;13.482;2023-02-02T13:43:17;101557.69;;;7.16;58.94
53932;BME280;39844;52.496;13.482;2023-02-02T13:48:52;101577.66;;;7.14;58.75
53932;BME280;39844;52.496;13.482;2023-02-02T13:51:46;101574.91;;;7.10;59.79
53932;BME280;39844;52.496;13.482;2023-02-02T14:00:16;101588.47;;;6.93;56.67
53932;BME280;39844;52.496;13.482;2023-02-02T14:02:48;101596.94;;;6.85;56.41
53932;BME280;39844;52.496;13.482;2023-02-02T14:05:33;101607.28;;;6.82;55.67
53932;BME280;39844;52.496;13.482;2023-02-02T14:08:06;101605.41;;;6.76;55.86
53932;BME280;39844;52.496;13.482;2023-02-02T14:10:39;101616.53;;;6.69;56.09
53932;BME280;39844;52.496;13.482;2023-02-02T14:13:20;101611.91;;;6.59;55.82
53932;BME280;39844;52.496;13.482;2023-02-02T14:15:54;101625.66;;;6.52;56.33
53932;BME280;39844;52.496;13.482;2023-02-02T14:27:12;101643.47;;;6.35;56.77
53932;BME280;39844;52.496;13.482;2023-02-02T14:37:55;101666.78;;;6.31;57.45
53932;BME280;39844;52.496;13.482;2023-02-02T14:43:29;101681.16;;;6.17;57.98
53932;BME280;39844;52.496;13.482;2023-02-02T14:48:39;101704.16;;;6.02;58.01
53932;BME280;39844;52.496;13.482;2023-02-02T14:51:22;101710.06;;;5.96;58.19
53932;BME280;39844;52.496;13.482;2023-02-02T14:53:57;101715.16;;;5.93;57.42
53932;BME280;39844;52.496;13.482;2023-02-02T14:56:44;101715.06;;;5.90;57.19
53932;BME280;39844;52.496;13.482;2023-02-02T14:59:21;101728.09;;;5.90;57.22
53932;BME280;39844;52.496;13.482;2023-02-02T15:04:35;101738.59;;;5.92;57.28
53932;BME280;39844;52.496;13.482;2023-02-02T15:10:03;101745.47;;;5.90;57.79
53932;BME280;39844;52.496;13.482;2023-02-02T15:12:39;101749.81;;;5.89;57.90
53932;BME280;39844;52.496;13.482;2023-02-02T15:15:16;101752.34;;;5.88;58.08
53932;BME280;39844;52.496;13.482;2023-02-02T15:17:52;101766.16;;;5.85;58.21